sensor_id;sensor_type;location;lat;lon;timestamp;pressure;altitude;pressure_sealevel;temperature;humidity
63556;BME280;49700;48.072;7.800;2023-04-26T00:00:42;99598.50;;;9.63;nan
63556;BME280;49700;48.072;7.800;2023-04-26T00:03:08;99599.34;;;9.63;nan
63556;BME280;49700;48.072;7.800;2023-04-26T00:05:33;99597.56;;;9.64;nan
63556;BME280;49700;48.072;7.800;2023-04-26T00:07:59;99588.97;;;9.62;nan
63556;BME280;49700;48.072;7.800;2023-04-26T00:10:25;99594.22;;;9.62;nan
63556;BME280;49700;48.072;7.800;2023-04-26T00:12:50;99586.41;;;9.60;nan
63556;BME280;49700;48.072;7.800;2023-04-26T00:15:17;99583.91;;;9.59;nan
63556;BME280;49700;48.072;7.800;2023-04-26T00:17:42;99597.09;;;9.57;nan
63556;BME280;49700;48.072;7.800;2023-04-26T00:20:09;99594.56;;;9.56;nan
63556;BME280;49700;48.072;7.800;2023-04-26T00:22:37;99596.63;;;9.50;nan
63556;BME280;49700;48.072;7.800;2023-04-26T00:25:02;99603.91;;;9.45;nan
63556;BME280;49700;48.072;7.800;2023-04-26T00:27:28;99605.03;;;9.41;nan
63556;BME280;49700;48.072;7.800;2023-04-26T00:29:53;99599.88;;;9.40;nan
63556;BME280;49700;48.072;7.800;2023-04-26T00:32:19;99599.97;;;9.38;nan
63556;BME280;49700;48.072;7.800;2023-04-26T00:34:45;99598.28;;;9.37;nan
63556;BME280;49700;48.072;7.800;2023-04-26T00:37:11;99593.88;;;9.38;nan
63556;BME280;49700;48.072;7.800;2023-04-26T00:39:37;99600.03;;;9.37;nan
63556;BME280;49700;48.072;7.800;2023-04-26T00:42:02;99593.31;;;9.33;nan
63556;BME280;49700;48.072;7.800;2023-04-26T00:44:28;99592.66;;;9.29;nan
63556;BME280;49700;48.072;7.800;2023-04-26T00:46:54;99604.16;;;9.26;nan
63556;BME280;49700;48.072;7.800;2023-04-26T00:49:22;99598.22;;;9.23;nan
63556;BME280;49700;48.072;7.800;2023-04-26T00:51:49;99600.13;;;9.21;nan
63556;BME280;49700;48.072;7.800;2023-04-26T00:54:16;99607.22;;;9.19;nan
63556;BME280;49700;48.072;7.800;2023-04-26T00:56:44;99618.72;;;9.16;nan
63556;BME280;49700;48.072;7.800;2023-04-26T00:59:10;99610.94;;;9.15;nan
63556;BME280;49700;48.072;7.800;2023-04-26T01:01:35;99611.94;;;9.12;nan
63556;BME280;49700;48.072;7.800;2023-04-26T01:04:02;99606.06;;;9.08;nan
63556;BME280;49700;48.072;7.800;2023-04-26T01:06:32;99601.84;;;9.06;nan
63556;BME280;49700;48.072;7.800;2023-04-26T01:09:00;99604.53;;;9.04;nan
63556;BME280;49700;48.072;7.800;2023-04-26T01:11:29;99605.56;;;9.02;nan
63556;BME280;49700;48.072;7.800;2023-04-26T01:13:55;99609.94;;;9.01;nan
63556;BME280;49700;48.072;7.800;2023-04-26T01:16:20;99585.78;;;8.96;nan
63556;BME280;49700;48.072;7.800;2023-04-26T01:18:51;99599.91;;;8.94;nan
63556;BME280;49700;48.072;7.800;2023-04-26T01:21:20;99593.16;;;8.90;nan
63556;BME280;49700;48.072;7.800;2023-04-26T01:23:47;99596.88;;;8.85;nan
63556;BME280;49700;48.072;7.800;2023-04-26T01:26:12;99598.66;;;8.85;nan
63556;BME280;49700;48.072;7.800;2023-04-26T01:28:38;99593.41;;;8.85;nan
63556;BME280;49700;48.072;7.800;2023-04-26T01:31:03;99589.00;;;8.85;nan
63556;BME280;49700;48.072;7.800;2023-04-26T01:33:29;99587.50;;;8.81;nan
63556;BME280;49700;48.072;7.800;2023-04-26T01:35:54;99583.94;;;8.82;nan
63556;BME280;49700;48.072;7.800;2023-04-26T01:38:21;99584.78;;;8.83;nan
63556;BME280;49700;48.072;7.800;2023-04-26T01:40:46;99570.97;;;8.81;nan
63556;BME280;49700;48.072;7.800;2023-04-26T01:43:12;99572.88;;;8.77;nan
63556;BME280;49700;48.072;7.800;2023-04-26T01:45:37;99566.06;;;8.75;nan
63556;BME280;49700;48.072;7.800;2023-04-26T01:48:21;99564.47;;;8.72;nan
63556;BME280;49700;48.072;7.800;2023-04-26T01:50:46;99573.34;;;8.70;nan
63556;BME280;49700;48.072;7.800;2023-04-26T01:53:12;99569.19;;;8.66;nan
63556;BME280;49700;48.072;7.800;2023-04-26T01:55:37;99575.56;;;8.61;nan
63556;BME280;49700;48.072;7.800;2023-04-26T01:58:03;99566.84;;;8.61;nan
63556;BME280;49700;48.072;7.800;2023-04-26T02:00:28;99569.56;;;8.59;nan
63556;BME280;49700;48.072;7.800;2023-04-26T02:02:55;99571.59;;;8.54;nan
63556;BME280;49700;48.072;7.800;2023-04-26T02:05:22;99582.13;;;8.53;nan
63556;BME280;49700;48.072;7.800;2023-04-26T02:07:48;99580.28;;;8.55;nan
63556;BME280;49700;48.072;7.800;2023-04-26T02:10:14;99572.25;;;8.58;nan
63556;BME280;49700;48.072;7.800;2023-04-26T02:12:39;99572.19;;;8.59;nan
63556;BME280;49700;48.072;7.800;2023-04-26T02:15:05;99584.31;;;8.60;nan
63556;BME280;49700;48.072;7.800;2023-04-26T02:17:33;99579.09;;;8.60;nan
63556;BME280;49700;48.072;7.800;2023-04-26T02:19:58;99579.84;;;8.62;nan
63556;BME280;49700;48.072;7.800;2023-04-26T02:22:24;99577.22;;;8.62;nan
63556;BME280;49700;48.072;7.800;2023-04-26T02:24:50;99571.22;;;8.60;nan
63556;BME280;49700;48.072;7.800;2023-04-26T02:27:16;99579.09;;;8.60;nan
63556;BME280;49700;48.072;7.800;2023-04-26T02:29:41;99581.13;;;8.55;nan
63556;BME280;49700;48.072;7.800;2023-04-26T02:32:07;99577.00;;;8.51;nan
63556;BME280;49700;48.072;7.800;2023-04-26T02:34:33;99578.84;;;8.49;nan
63556;BME280;49700;48.072;7.800;2023-04-26T02:36:58;99584.09;;;8.49;nan
63556;BME280;49700;48.072;7.800;2023-04-26T02:39:24;99580.53;;;8.50;nan
63556;BME280;49700;48.072;7.800;2023-04-26T02:41:50;99577.25;;;8.47;nan
63556;BME280;49700;48.072;7.800;2023-04-26T02:44:15;99583.50;;;8.44;nan
63556;BME280;49700;48.072;7.800;2023-04-26T02:46:41;99584.59;;;8.40;nan
63556;BME280;49700;48.072;7.800;2023-04-26T02:49:07;99583.09;;;8.34;nan
63556;BME280;49700;48.072;7.800;2023-04-26T02:51:32;99582.44;;;8.31;nan
63556;BME280;49700;48.072;7.800;2023-04-26T02:53:58;99587.59;;;8.32;nan
63556;BME280;49700;48.072;7.800;2023-04-26T02:56:24;99578.81;;;8.33;nan
63556;BME280;49700;48.072;7.800;2023-04-26T02:58:49;99582.38;;;8.32;nan
63556;BME280;49700;48.072;7.800;2023-04-26T03:01:15;99578.03;;;8.31;nan
63556;BME280;49700;48.072;7.800;2023-04-26T03:03:41;99576.19;;;8.33;nan
63556;BME280;49700;48.072;7.800;2023-04-26T03:06:07;99583.09;;;8.34;nan
63556;BME280;49700;48.072;7.800;2023-04-26T03:08:32;99576.44;;;8.29;nan
63556;BME280;49700;48.072;7.800;2023-04-26T03:10:59;99581.94;;;8.24;nan
63556;BME280;49700;48.072;7.800;2023-04-26T03:13:26;99581.94;;;8.24;nan
63556;BME280;49700;48.072;7.800;2023-04-26T03:15:54;99584.47;;;8.26;nan
63556;BME280;49700;48.072;7.800;2023-04-26T03:18:20;99572.56;;;8.20;nan
63556;BME280;49700;48.072;7.800;2023-04-26T03:20:47;99579.91;;;8.13;nan
63556;BME280;49700;48.072;7.800;2023-04-26T03:23:13;99577.53;;;8.09;nan
63556;BME280;49700;48.072;7.800;2023-04-26T03:25:38;99572.38;;;8.07;nan
63556;BME280;49700;48.072;7.800;2023-04-26T03:28:04;99566.41;;;8.05;nan
63556;BME280;49700;48.072;7.800;2023-04-26T03:30:30;99572.88;;;7.98;nan
63556;BME280;49700;48.072;7.800;2023-04-26T03:32:55;99573.22;;;7.92;nan
63556;BME280;49700;48.072;7.800;2023-04-26T03:35:21;99561.97;;;7.90;nan
63556;BME280;49700;48.072;7.800;2023-04-26T03:37:47;99554.91;;;7.92;nan
63556;BME280;49700;48.072;7.800;2023-04-26T03:40:13;99553.19;;;7.91;nan
63556;BME280;49700;48.072;7.800;2023-04-26T03:42:38;99553.19;;;7.91;nan
63556;BME280;49700;48.072;7.800;2023-04-26T03:45:04;99550.50;;;7.92;nan
63556;BME280;49700;48.072;7.800;2023-04-26T03:47:30;99550.16;;;7.98;nan
63556;BME280;49700;48.072;7.800;2023-04-26T03:49:56;99554.31;;;8.03;nan
63556;BME280;49700;48.072;7.800;2023-04-26T03:52:22;99555.09;;;8.05;nan
63556;BME280;49700;48.072;7.800;2023-04-26T03:54:47;99555.00;;;8.06;nan
63556;BME280;49700;48.072;7.800;2023-04-26T03:57:13;99559.47;;;8.04;nan
63556;BME280;49700;48.072;7.800;2023-04-26T03:59:39;99557.00;;;8.01;nan
63556;BME280;49700;48.072;7.800;2023-04-26T04:02:04;99558.78;;;8.01;nan
63556;BME280;49700;48.072;7.800;2023-04-26T04:04:30;99565.56;;;8.05;nan
63556;BME280;49700;48.072;7.800;2023-04-26T04:06:56;99554.06;;;8.07;nan
63556;BME280;49700;48.072;7.800;2023-04-26T04:09:21;99567.91;;;8.09;nan
63556;BME280;49700;48.072;7.800;2023-04-26T04:11:46;99555.75;;;8.08;nan
63556;BME280;49700;48.072;7.800;2023-04-26T04:14:12;99562.16;;;8.03;nan
63556;BME280;49700;48.072;7.800;2023-04-26T04:16:37;99556.34;;;7.97;nan
63556;BME280;49700;48.072;7.800;2023-04-26T04:19:03;99563.53;;;7.94;nan
63556;BME280;49700;48.072;7.800;2023-04-26T04:21:29;99567.97;;;7.92;nan
63556;BME280;49700;48.072;7.800;2023-04-26T04:23:55;99566.13;;;7.94;nan
63556;BME280;49700;48.072;7.800;2023-04-26T04:26:21;99567.66;;;7.98;nan
63556;BME280;49700;48.072;7.800;2023-04-26T04:28:46;99570.84;;;8.03;nan
63556;BME280;49700;48.072;7.800;2023-04-26T04:31:13;99565.47;;;8.06;nan
63556;BME280;49700;48.072;7.800;2023-04-26T04:33:38;99578.38;;;8.09;nan
63556;BME280;49700;48.072;7.800;2023-04-26T04:36:05;99574.56;;;8.15;nan
63556;BME280;49700;48.072;7.800;2023-04-26T04:38:31;99580.22;;;8.23;nan
63556;BME280;49700;48.072;7.800;2023-04-26T04:40:57;99572.91;;;8.30;nan
63556;BME280;49700;48.072;7.800;2023-04-26T04:43:23;99577.72;;;8.37;nan
63556;BME280;49700;48.072;7.800;2023-04-26T04:45:48;99579.47;;;8.37;nan
63556;BME280;49700;48.072;7.800;2023-04-26T04:48:14;99570.47;;;8.27;nan
63556;BME280;49700;48.072;7.800;2023-04-26T04:50:40;99574.34;;;8.19;nan
63556;BME280;49700;48.072;7.800;2023-04-26T04:53:07;99585.13;;;8.13;nan
63556;BME280;49700;48.072;7.800;2023-04-26T04:55:34;99586.91;;;8.13;nan
63556;BME280;49700;48.072;7.800;2023-04-26T04:58:02;99591.28;;;8.12;nan
63556;BME280;49700;48.072;7.800;2023-04-26T05:00:29;99586.22;;;8.09;nan
63556;BME280;49700;48.072;7.800;2023-04-26T05:03:03;99586.38;;;8.06;nan
63556;BME280;49700;48.072;7.800;2023-04-26T05:05:30;99593.41;;;8.06;nan
63556;BME280;49700;48.072;7.800;2023-04-26T05:07:55;99598.47;;;8.09;nan
63556;BME280;49700;48.072;7.800;2023-04-26T05:10:21;99598.66;;;8.22;nan
63556;BME280;49700;48.072;7.800;2023-04-26T05:12:46;99594.78;;;8.45;nan
63556;BME280;49700;48.072;7.800;2023-04-26T05:15:12;99585.75;;;8.66;nan
63556;BME280;49700;48.072;7.800;2023-04-26T05:17:38;99587.34;;;8.84;nan
63556;BME280;49700;48.072;7.800;2023-04-26T05:20:19;99591.78;;;8.98;nan
63556;BME280;49700;48.072;7.800;2023-04-26T05:22:45;99591.16;;;9.09;nan
63556;BME280;49700;48.072;7.800;2023-04-26T05:25:11;99600.25;;;9.18;nan
63556;BME280;49700;48.072;7.800;2023-04-26T05:27:38;99603.41;;;9.24;nan
63556;BME280;49700;48.072;7.800;2023-04-26T05:30:28;99602.56;;;9.24;nan
63556;BME280;49700;48.072;7.800;2023-04-26T05:33:11;99608.53;;;9.26;nan
63556;BME280;49700;48.072;7.800;2023-04-26T05:35:46;99610.25;;;9.27;nan
63556;BME280;49700;48.072;7.800;2023-04-26T05:38:11;99610.31;;;9.25;nan
63556;BME280;49700;48.072;7.800;2023-04-26T05:40:36;99622.66;;;9.23;nan
63556;BME280;49700;48.072;7.800;2023-04-26T05:43:02;99629.03;;;9.19;nan
63556;BME280;49700;48.072;7.800;2023-04-26T05:45:29;99635.34;;;9.15;nan
63556;BME280;49700;48.072;7.800;2023-04-26T05:47:54;99640.13;;;9.08;nan
63556;BME280;49700;48.072;7.800;2023-04-26T05:50:20;99643.28;;;8.99;nan
63556;BME280;49700;48.072;7.800;2023-04-26T05:52:46;99651.56;;;8.92;nan
63556;BME280;49700;48.072;7.800;2023-04-26T05:55:11;99646.75;;;8.84;nan
63556;BME280;49700;48.072;7.800;2023-04-26T05:57:38;99663.72;;;8.77;nan
63556;BME280;49700;48.072;7.800;2023-04-26T06:00:05;99662.09;;;8.74;nan
63556;BME280;49700;48.072;7.800;2023-04-26T06:02:39;99665.91;;;8.69;nan
63556;BME280;49700;48.072;7.800;2023-04-26T06:05:06;99661.03;;;8.62;nan
63556;BME280;49700;48.072;7.800;2023-04-26T06:07:34;99665.31;;;8.63;nan
63556;BME280;49700;48.072;7.800;2023-04-26T06:10:01;99668.69;;;8.66;nan
63556;BME280;49700;48.072;7.800;2023-04-26T06:12:27;99674.72;;;8.68;nan
63556;BME280;49700;48.072;7.800;2023-04-26T06:14:56;99669.31;;;8.71;nan
63556;BME280;49700;48.072;7.800;2023-04-26T06:17:24;99661.28;;;8.74;nan
63556;BME280;49700;48.072;7.800;2023-04-26T06:19:50;99655.84;;;8.77;nan
63556;BME280;49700;48.072;7.800;2023-04-26T06:22:15;99657.56;;;8.78;nan
63556;BME280;49700;48.072;7.800;2023-04-26T06:24:42;99662.94;;;8.75;nan
63556;BME280;49700;48.072;7.800;2023-04-26T06:27:07;99656.13;;;8.72;nan
63556;BME280;49700;48.072;7.800;2023-04-26T06:29:34;99661.38;;;8.72;nan
63556;BME280;49700;48.072;7.800;2023-04-26T06:31:59;99663.81;;;8.75;nan
63556;BME280;49700;48.072;7.800;2023-04-26T06:34:25;99655.63;;;8.81;nan
63556;BME280;49700;48.072;7.800;2023-04-26T06:36:51;99644.72;;;8.89;nan
63556;BME280;49700;48.072;7.800;2023-04-26T06:39:17;99636.31;;;8.98;nan
63556;BME280;49700;48.072;7.800;2023-04-26T06:41:43;99645.34;;;9.08;nan
63556;BME280;49700;48.072;7.800;2023-04-26T06:44:10;99649.16;;;9.19;nan
63556;BME280;49700;48.072;7.800;2023-04-26T06:46:40;99645.06;;;9.29;nan
63556;BME280;49700;48.072;7.800;2023-04-26T06:49:06;99634.03;;;9.38;nan
63556;BME280;49700;48.072;7.800;2023-04-26T06:51:32;99636.09;;;9.47;nan
63556;BME280;49700;48.072;7.800;2023-04-26T06:53:57;99640.06;;;9.55;nan
63556;BME280;49700;48.072;7.800;2023-04-26T06:56:25;99631.66;;;9.64;nan
63556;BME280;49700;48.072;7.800;2023-04-26T06:59:01;99636.44;;;9.71;nan
63556;BME280;49700;48.072;7.800;2023-04-26T07:01:28;99635.16;;;9.79;nan
63556;BME280;49700;48.072;7.800;2023-04-26T07:03:54;99640.13;;;9.83;nan
63556;BME280;49700;48.072;7.800;2023-04-26T07:06:21;99632.16;;;9.85;nan
63556;BME280;49700;48.072;7.800;2023-04-26T07:08:47;99635.91;;;9.81;nan
63556;BME280;49700;48.072;7.800;2023-04-26T07:11:12;99632.78;;;9.74;nan
63556;BME280;49700;48.072;7.800;2023-04-26T07:13:38;99633.75;;;9.73;nan
63556;BME280;49700;48.072;7.800;2023-04-26T07:16:03;99627.56;;;9.74;nan
63556;BME280;49700;48.072;7.800;2023-04-26T07:18:29;99633.16;;;9.68;nan
63556;BME280;49700;48.072;7.800;2023-04-26T07:20:54;99643.75;;;9.66;nan
63556;BME280;49700;48.072;7.800;2023-04-26T07:23:19;99639.91;;;9.72;nan
63556;BME280;49700;48.072;7.800;2023-04-26T07:25:45;99640.41;;;9.79;nan
63556;BME280;49700;48.072;7.800;2023-04-26T07:28:10;99633.88;;;9.86;nan
63556;BME280;49700;48.072;7.800;2023-04-26T07:30:36;99636.88;;;9.94;nan
63556;BME280;49700;48.072;7.800;2023-04-26T07:33:01;99627.38;;;10.06;nan
63556;BME280;49700;48.072;7.800;2023-04-26T07:35:27;99620.53;;;10.17;nan
63556;BME280;49700;48.072;7.800;2023-04-26T07:37:52;99626.53;;;10.34;nan
63556;BME280;49700;48.072;7.800;2023-04-26T07:40:18;99632.44;;;10.52;nan
63556;BME280;49700;48.072;7.800;2023-04-26T07:42:44;99626.03;;;10.70;nan
63556;BME280;49700;48.072;7.800;2023-04-26T07:45:10;99621.88;;;10.80;nan
63556;BME280;49700;48.072;7.800;2023-04-26T07:47:36;99622.94;;;10.91;nan
63556;BME280;49700;48.072;7.800;2023-04-26T07:50:01;99623.84;;;11.04;nan
63556;BME280;49700;48.072;7.800;2023-04-26T07:52:27;99619.47;;;11.17;nan
63556;BME280;49700;48.072;7.800;2023-04-26T07:54:52;99621.00;;;11.34;nan
63556;BME280;49700;48.072;7.800;2023-04-26T07:57:17;99623.53;;;11.48;nan
63556;BME280;49700;48.072;7.800;2023-04-26T07:59:43;99627.53;;;11.54;nan
63556;BME280;49700;48.072;7.800;2023-04-26T08:02:09;99622.28;;;11.54;nan
63556;BME280;49700;48.072;7.800;2023-04-26T08:04:34;99633.00;;;11.51;nan
63556;BME280;49700;48.072;7.800;2023-04-26T08:07:00;99631.53;;;11.47;nan
63556;BME280;49700;48.072;7.800;2023-04-26T08:09:27;99630.06;;;11.43;nan
63556;BME280;49700;48.072;7.800;2023-04-26T08:11:53;99626.88;;;11.38;nan
63556;BME280;49700;48.072;7.800;2023-04-26T08:14:18;99626.13;;;11.36;nan
63556;BME280;49700;48.072;7.800;2023-04-26T08:16:44;99630.44;;;11.37;nan
63556;BME280;49700;48.072;7.800;2023-04-26T08:19:09;99628.78;;;11.48;nan
63556;BME280;49700;48.072;7.800;2023-04-26T08:21:35;99629.97;;;11.57;nan
63556;BME280;49700;48.072;7.800;2023-04-26T08:24:00;99624.59;;;11.71;nan
63556;BME280;49700;48.072;7.800;2023-04-26T08:26:26;99621.88;;;11.99;nan
63556;BME280;49700;48.072;7.800;2023-04-26T08:28:51;99617.75;;;12.20;nan
63556;BME280;49700;48.072;7.800;2023-04-26T08:31:16;99616.00;;;12.21;nan
63556;BME280;49700;48.072;7.800;2023-04-26T08:33:42;99611.75;;;12.31;nan
63556;BME280;49700;48.072;7.800;2023-04-26T08:36:07;99612.06;;;12.63;nan
63556;BME280;49700;48.072;7.800;2023-04-26T08:38:33;99621.75;;;12.99;nan
63556;BME280;49700;48.072;7.800;2023-04-26T08:40:58;99610.31;;;13.23;nan
63556;BME280;49700;48.072;7.800;2023-04-26T08:43:32;99607.09;;;13.55;nan
63556;BME280;49700;48.072;7.800;2023-04-26T08:46:00;99605.47;;;13.76;nan
63556;BME280;49700;48.072;7.800;2023-04-26T08:48:26;99610.75;;;13.99;nan
63556;BME280;49700;48.072;7.800;2023-04-26T08:50:54;99603.34;;;14.26;nan
63556;BME280;49700;48.072;7.800;2023-04-26T08:53:20;99604.28;;;14.48;nan
63556;BME280;49700;48.072;7.800;2023-04-26T08:55:49;99605.84;;;14.50;nan
63556;BME280;49700;48.072;7.800;2023-04-26T08:58:16;99608.34;;;14.41;nan
63556;BME280;49700;48.072;7.800;2023-04-26T09:00:43;99604.75;;;14.42;nan
63556;BME280;49700;48.072;7.800;2023-04-26T09:03:10;99603.06;;;14.41;nan
63556;BME280;49700;48.072;7.800;2023-04-26T09:05:35;99598.63;;;14.41;nan
63556;BME280;49700;48.072;7.800;2023-04-26T09:08:03;99593.94;;;14.45;nan
63556;BME280;49700;48.072;7.800;2023-04-26T09:10:30;99598.13;;;14.47;nan
63556;BME280;49700;48.072;7.800;2023-04-26T09:12:56;99603.78;;;14.43;nan
63556;BME280;49700;48.072;7.800;2023-04-26T09:15:24;99596.59;;;14.33;nan
63556;BME280;49700;48.072;7.800;2023-04-26T09:17:50;99594.19;;;14.19;nan
63556;BME280;49700;48.072;7.800;2023-04-26T09:22:52;99595.88;;;13.98;nan
63556;BME280;49700;48.072;7.800;2023-04-26T09:25:27;99588.19;;;14.06;nan
63556;BME280;49700;48.072;7.800;2023-04-26T09:27:53;99585.31;;;14.09;nan
63556;BME280;49700;48.072;7.800;2023-04-26T09:30:18;99580.50;;;14.14;nan
63556;BME280;49700;48.072;7.800;2023-04-26T09:32:57;99578.09;;;14.22;nan
63556;BME280;49700;48.072;7.800;2023-04-26T09:38:09;99581.94;;;14.41;nan
63556;BME280;49700;48.072;7.800;2023-04-26T09:40:43;99576.97;;;14.47;nan
63556;BME280;49700;48.072;7.800;2023-04-26T09:43:17;99574.94;;;14.51;nan
63556;BME280;49700;48.072;7.800;2023-04-26T09:45:49;99583.59;;;14.64;nan
63556;BME280;49700;48.072;7.800;2023-04-26T09:50:43;99577.56;;;15.05;nan
63556;BME280;49700;48.072;7.800;2023-04-26T09:53:28;99571.66;;;15.34;nan
63556;BME280;49700;48.072;7.800;2023-04-26T09:55:55;99575.34;;;15.43;nan
63556;BME280;49700;48.072;7.800;2023-04-26T09:58:22;99565.91;;;15.50;nan
63556;BME280;49700;48.072;7.800;2023-04-26T10:00:51;99567.00;;;15.68;nan
63556;BME280;49700;48.072;7.800;2023-04-26T10:03:18;99571.38;;;15.79;nan
63556;BME280;49700;48.072;7.800;2023-04-26T10:05:44;99567.94;;;15.88;nan
63556;BME280;49700;48.072;7.800;2023-04-26T10:08:10;99564.22;;;16.01;nan
63556;BME280;49700;48.072;7.800;2023-04-26T10:10:36;99560.47;;;16.03;nan
63556;BME280;49700;48.072;7.800;2023-04-26T10:13:01;99557.09;;;16.01;nan
63556;BME280;49700;48.072;7.800;2023-04-26T10:15:28;99559.75;;;16.01;nan
63556;BME280;49700;48.072;7.800;2023-04-26T10:17:53;99561.19;;;16.05;nan
63556;BME280;49700;48.072;7.800;2023-04-26T10:20:19;99560.19;;;16.06;nan
63556;BME280;49700;48.072;7.800;2023-04-26T10:22:50;99559.53;;;16.14;nan
63556;BME280;49700;48.072;7.800;2023-04-26T10:25:17;99556.09;;;16.23;nan
63556;BME280;49700;48.072;7.800;2023-04-26T10:30:09;99562.13;;;16.35;nan
63556;BME280;49700;48.072;7.800;2023-04-26T10:35:30;99551.75;;;16.22;nan
63556;BME280;49700;48.072;7.800;2023-04-26T10:45:34;99550.41;;;15.45;nan
63556;BME280;49700;48.072;7.800;2023-04-26T10:48:17;99556.72;;;15.54;nan
63556;BME280;49700;48.072;7.800;2023-04-26T10:53:57;99543.63;;;15.74;nan
63556;BME280;49700;48.072;7.800;2023-04-26T10:59:08;99534.78;;;15.94;nan
63556;BME280;49700;48.072;7.800;2023-04-26T11:01:34;99537.63;;;16.02;nan
63556;BME280;49700;48.072;7.800;2023-04-26T11:06:26;99534.09;;;15.92;nan
63556;BME280;49700;48.072;7.800;2023-04-26T11:08:52;99533.09;;;15.93;nan
63556;BME280;49700;48.072;7.800;2023-04-26T11:11:17;99528.69;;;16.03;nan
63556;BME280;49700;48.072;7.800;2023-04-26T11:13:46;99521.75;;;16.22;nan
63556;BME280;49700;48.072;7.800;2023-04-26T11:16:15;99525.00;;;16.35;nan
63556;BME280;49700;48.072;7.800;2023-04-26T11:18:45;99507.47;;;16.53;nan
63556;BME280;49700;48.072;7.800;2023-04-26T11:21:12;99502.44;;;16.60;nan
63556;BME280;49700;48.072;7.800;2023-04-26T11:23:41;99506.91;;;16.59;nan
63556;BME280;49700;48.072;7.800;2023-04-26T11:26:07;99504.38;;;16.68;nan
63556;BME280;49700;48.072;7.800;2023-04-26T11:28:36;99505.09;;;16.79;nan
63556;BME280;49700;48.072;7.800;2023-04-26T11:31:02;99501.50;;;16.80;nan
63556;BME280;49700;48.072;7.800;2023-04-26T11:33:28;99495.19;;;16.72;nan
63556;BME280;49700;48.072;7.800;2023-04-26T11:35:54;99494.63;;;16.58;nan
63556;BME280;49700;48.072;7.800;2023-04-26T11:38:24;99491.53;;;16.63;nan
63556;BME280;49700;48.072;7.800;2023-04-26T11:43:20;99493.50;;;16.71;nan
63556;BME280;49700;48.072;7.800;2023-04-26T11:45:45;99499.69;;;16.81;nan
63556;BME280;49700;48.072;7.800;2023-04-26T11:48:11;99501.63;;;16.89;nan
63556;BME280;49700;48.072;7.800;2023-04-26T11:50:37;99502.59;;;16.97;nan
63556;BME280;49700;48.072;7.800;2023-04-26T11:53:05;99495.06;;;17.02;nan
63556;BME280;49700;48.072;7.800;2023-04-26T11:55:32;99499.22;;;16.95;nan
63556;BME280;49700;48.072;7.800;2023-04-26T11:57:59;99486.84;;;16.96;nan
63556;BME280;49700;48.072;7.800;2023-04-26T12:00:25;99490.16;;;16.98;nan
63556;BME280;49700;48.072;7.800;2023-04-26T12:02:50;99491.16;;;16.97;nan
63556;BME280;49700;48.072;7.800;2023-04-26T12:05:28;99483.03;;;16.98;nan
63556;BME280;49700;48.072;7.800;2023-04-26T12:07:58;99479.28;;;16.91;nan
63556;BME280;49700;48.072;7.800;2023-04-26T12:10:38;99473.69;;;16.75;nan
63556;BME280;49700;48.072;7.800;2023-04-26T12:13:03;99474.81;;;16.82;nan
63556;BME280;49700;48.072;7.800;2023-04-26T12:15:30;99472.28;;;16.90;nan
63556;BME280;49700;48.072;7.800;2023-04-26T12:18:05;99471.63;;;16.88;nan
63556;BME280;49700;48.072;7.800;2023-04-26T12:20:35;99467.38;;;16.76;nan
63556;BME280;49700;48.072;7.800;2023-04-26T12:25:28;99465.75;;;16.55;nan
63556;BME280;49700;48.072;7.800;2023-04-26T12:27:55;99466.44;;;16.48;nan
63556;BME280;49700;48.072;7.800;2023-04-26T12:30:20;99461.69;;;16.51;nan
63556;BME280;49700;48.072;7.800;2023-04-26T12:33:00;99467.25;;;16.48;nan
63556;BME280;49700;48.072;7.800;2023-04-26T12:35:26;99462.50;;;16.32;nan
63556;BME280;49700;48.072;7.800;2023-04-26T12:37:51;99460.53;;;16.25;nan
63556;BME280;49700;48.072;7.800;2023-04-26T12:40:19;99467.94;;;16.31;nan
63556;BME280;49700;48.072;7.800;2023-04-26T12:42:46;99460.56;;;16.34;nan
63556;BME280;49700;48.072;7.800;2023-04-26T12:45:12;99453.84;;;16.50;nan
63556;BME280;49700;48.072;7.800;2023-04-26T12:47:37;99456.38;;;16.61;nan
63556;BME280;49700;48.072;7.800;2023-04-26T12:50:03;99458.59;;;16.66;nan
63556;BME280;49700;48.072;7.800;2023-04-26T12:52:29;99453.44;;;16.74;nan
63556;BME280;49700;48.072;7.800;2023-04-26T12:54:54;99447.31;;;16.83;nan
63556;BME280;49700;48.072;7.800;2023-04-26T12:57:20;99451.75;;;16.92;nan
63556;BME280;49700;48.072;7.800;2023-04-26T12:59:46;99446.28;;;17.03;nan
63556;BME280;49700;48.072;7.800;2023-04-26T13:02:12;99445.75;;;17.00;nan
63556;BME280;49700;48.072;7.800;2023-04-26T13:04:37;99454.53;;;17.00;nan
63556;BME280;49700;48.072;7.800;2023-04-26T13:07:03;99456.13;;;16.93;nan
63556;BME280;49700;48.072;7.800;2023-04-26T13:09:28;99458.75;;;16.93;nan
63556;BME280;49700;48.072;7.800;2023-04-26T13:11:54;99451.63;;;16.94;nan
63556;BME280;49700;48.072;7.800;2023-04-26T13:14:19;99464.19;;;16.92;nan
63556;BME280;49700;48.072;7.800;2023-04-26T13:16:47;99456.13;;;16.93;nan
63556;BME280;49700;48.072;7.800;2023-04-26T13:19:12;99450.94;;;17.01;nan
63556;BME280;49700;48.072;7.800;2023-04-26T13:21:38;99454.81;;;17.07;nan
63556;BME280;49700;48.072;7.800;2023-04-26T13:24:05;99453.44;;;17.03;nan
63556;BME280;49700;48.072;7.800;2023-04-26T13:26:30;99460.00;;;16.89;nan
63556;BME280;49700;48.072;7.800;2023-04-26T13:28:56;99452.22;;;16.78;nan
63556;BME280;49700;48.072;7.800;2023-04-26T13:31:21;99441.16;;;16.73;nan
63556;BME280;49700;48.072;7.800;2023-04-26T13:33:48;99441.03;;;16.74;nan
63556;BME280;49700;48.072;7.800;2023-04-26T13:36:14;99445.78;;;16.80;nan
63556;BME280;49700;48.072;7.800;2023-04-26T13:38:41;99438.09;;;16.87;nan
63556;BME280;49700;48.072;7.800;2023-04-26T13:41:06;99431.25;;;16.94;nan
63556;BME280;49700;48.072;7.800;2023-04-26T13:43:32;99436.25;;;16.97;nan
63556;BME280;49700;48.072;7.800;2023-04-26T13:45:58;99442.22;;;17.09;nan
63556;BME280;49700;48.072;7.800;2023-04-26T13:48:24;99437.19;;;17.25;nan
63556;BME280;49700;48.072;7.800;2023-04-26T13:50:49;99437.72;;;17.29;nan
63556;BME280;49700;48.072;7.800;2023-04-26T13:53:15;99442.75;;;17.32;nan
63556;BME280;49700;48.072;7.800;2023-04-26T13:55:40;99441.03;;;17.41;nan
63556;BME280;49700;48.072;7.800;2023-04-26T13:58:06;99432.75;;;17.44;nan